sensor_id;sensor_type;location;lat;lon;timestamp;temperature;humidity
6986;DHT22;3533;51.246;6.850;2022-12-24T00:01:53;19.20;42.20
6986;DHT22;3533;51.246;6.850;2022-12-24T00:04:19;19.10;42.20
6986;DHT22;3533;51.246;6.850;2022-12-24T00:06:44;19.10;42.20
6986;DHT22;3533;51.246;6.850;2022-12-24T00:09:10;19.10;42.20
6986;DHT22;3533;51.246;6.850;2022-12-24T00:11:35;19.10;42.20
6986;DHT22;3533;51.246;6.850;2022-12-24T00:14:01;19.10;42.20
6986;DHT22;3533;51.246;6.850;2022-12-24T00:16:26;19.10;42.20
6986;DHT22;3533;51.246;6.850;2022-12-24T00:18:52;19.10;42.20
6986;DHT22;3533;51.246;6.850;2022-12-24T00:21:17;19.10;42.20
6986;DHT22;3533;51.246;6.850;2022-12-24T00:23:43;19.10;42.20
6986;DHT22;3533;51.246;6.850;2022-12-24T00:26:09;19.10;42.20
6986;DHT22;3533;51.246;6.850;2022-12-24T00:28:34;19.10;42.20
6986;DHT22;3533;51.246;6.850;2022-12-24T00:31:09;19.10;42.20
6986;DHT22;3533;51.246;6.850;2022-12-24T00:33:35;19.10;42.20
6986;DHT22;3533;51.246;6.850;2022-12-24T00:36:01;19.10;42.20
6986;DHT22;3533;51.246;6.850;2022-12-24T00:38:26;19.10;42.20
6986;DHT22;3533;51.246;6.850;2022-12-24T00:41:01;19.20;42.20
6986;DHT22;3533;51.246;6.850;2022-12-24T00:43:28;19.10;42.20
6986;DHT22;3533;51.246;6.850;2022-12-24T00:45:54;19.10;42.10
6986;DHT22;3533;51.246;6.850;2022-12-24T00:48:19;19.10;42.20
6986;DHT22;3533;51.246;6.850;2022-12-24T00:50:45;19.10;42.80
6986;DHT22;3533;51.246;6.850;2022-12-24T00:53:10;19.10;42.10
6986;DHT22;3533;51.246;6.850;2022-12-24T00:55:36;19.10;42.10
6986;DHT22;3533;51.246;6.850;2022-12-24T00:58:01;19.10;42.10
6986;DHT22;3533;51.246;6.850;2022-12-24T01:00:27;19.10;42.10
6986;DHT22;3533;51.246;6.850;2022-12-24T01:02:52;19.10;42.10
6986;DHT22;3533;51.246;6.850;2022-12-24T01:05:18;19.10;42.10
6986;DHT22;3533;51.246;6.850;2022-12-24T01:07:45;19.10;42.10
6986;DHT22;3533;51.246;6.850;2022-12-24T01:10:17;19.10;42.10
6986;DHT22;3533;51.246;6.850;2022-12-24T01:12:44;19.10;42.10
6986;DHT22;3533;51.246;6.850;2022-12-24T01:15:10;19.10;42.10
6986;DHT22;3533;51.246;6.850;2022-12-24T01:17:36;19.10;42.10
6986;DHT22;3533;51.246;6.850;2022-12-24T01:20:03;19.10;42.10
6986;DHT22;3533;51.246;6.850;2022-12-24T01:22:29;19.10;42.10
6986;DHT22;3533;51.246;6.850;2022-12-24T01:24:54;19.10;42.10
6986;DHT22;3533;51.246;6.850;2022-12-24T01:27:20;19.20;42.10
6986;DHT22;3533;51.246;6.850;2022-12-24T01:29:45;19.10;42.10
6986;DHT22;3533;51.246;6.850;2022-12-24T01:32:11;19.10;42.10
6986;DHT22;3533;51.246;6.850;2022-12-24T01:34:36;19.10;42.10
6986;DHT22;3533;51.246;6.850;2022-12-24T01:37:02;19.10;42.10
6986;DHT22;3533;51.246;6.850;2022-12-24T01:39:28;19.10;42.10
6986;DHT22;3533;51.246;6.850;2022-12-24T01:41:53;19.10;42.10
6986;DHT22;3533;51.246;6.850;2022-12-24T01:44:41;19.10;42.10
6986;DHT22;3533;51.246;6.850;2022-12-24T01:47:11;19.20;42.20
6986;DHT22;3533;51.246;6.850;2022-12-24T01:49:50;19.10;42.10
6986;DHT22;3533;51.246;6.850;2022-12-24T01:52:22;19.20;42.10
6986;DHT22;3533;51.246;6.850;2022-12-24T01:55:00;19.20;42.20
6986;DHT22;3533;51.246;6.850;2022-12-24T01:57:30;19.10;42.10
6986;DHT22;3533;51.246;6.850;2022-12-24T02:00:02;19.10;42.10
6986;DHT22;3533;51.246;6.850;2022-12-24T02:02:29;19.20;42.20
6986;DHT22;3533;51.246;6.850;2022-12-24T02:05:05;19.10;42.20
6986;DHT22;3533;51.246;6.850;2022-12-24T02:07:33;19.10;42.10
6986;DHT22;3533;51.246;6.850;2022-12-24T02:10:00;19.10;42.10
6986;DHT22;3533;51.246;6.850;2022-12-24T02:12:29;19.10;42.10
6986;DHT22;3533;51.246;6.850;2022-12-24T02:14:55;19.10;42.10
6986;DHT22;3533;51.246;6.850;2022-12-24T02:23:48;19.10;42.20
6986;DHT22;3533;51.246;6.850;2022-12-24T02:26:39;19.10;42.10
6986;DHT22;3533;51.246;6.850;2022-12-24T02:29:34;19.10;42.20
6986;DHT22;3533;51.246;6.850;2022-12-24T02:32:11;19.10;42.20
6986;DHT22;3533;51.246;6.850;2022-12-24T02:34:44;19.10;42.20
6986;DHT22;3533;51.246;6.850;2022-12-24T02:37:21;19.10;42.20
6986;DHT22;3533;51.246;6.850;2022-12-24T02:39:56;19.10;42.30
6986;DHT22;3533;51.246;6.850;2022-12-24T02:42:27;19.10;43.10
6986;DHT22;3533;51.246;6.850;2022-12-24T02:45:02;19.10;42.30
6986;DHT22;3533;51.246;6.850;2022-12-24T02:47:30;19.10;42.20
6986;DHT22;3533;51.246;6.850;2022-12-24T02:49:56;19.10;42.30
6986;DHT22;3533;51.246;6.850;2022-12-24T02:52:34;19.10;42.30
6986;DHT22;3533;51.246;6.850;2022-12-24T02:55:20;19.10;42.30
6986;DHT22;3533;51.246;6.850;2022-12-24T03:06:58;19.10;42.30
6986;DHT22;3533;51.246;6.850;2022-12-24T03:09:32;19.10;42.30
6986;DHT22;3533;51.246;6.850;2022-12-24T03:12:09;19.00;42.20
6986;DHT22;3533;51.246;6.850;2022-12-24T03:14:39;19.10;42.20
6986;DHT22;3533;51.246;6.850;2022-12-24T03:17:06;19.10;42.30
6986;DHT22;3533;51.246;6.850;2022-12-24T03:19:33;19.10;42.30
6986;DHT22;3533;51.246;6.850;2022-12-24T03:22:02;19.10;42.30
6986;DHT22;3533;51.246;6.850;2022-12-24T03:24:28;19.10;42.20
6986;DHT22;3533;51.246;6.850;2022-12-24T03:26:54;19.10;42.20
6986;DHT22;3533;51.246;6.850;2022-12-24T03:29:20;19.10;42.20
6986;DHT22;3533;51.246;6.850;2022-12-24T03:31:51;19.10;42.20
6986;DHT22;3533;51.246;6.850;2022-12-24T03:34:17;19.10;42.20
6986;DHT22;3533;51.246;6.850;2022-12-24T03:36:45;19.10;42.20
6986;DHT22;3533;51.246;6.850;2022-12-24T03:39:11;19.10;42.20
6986;DHT22;3533;51.246;6.850;2022-12-24T03:41:37;19.10;42.20
6986;DHT22;3533;51.246;6.850;2022-12-24T03:44:03;19.10;42.20
6986;DHT22;3533;51.246;6.850;2022-12-24T03:46:29;19.10;42.20
6986;DHT22;3533;51.246;6.850;2022-12-24T03:48:54;19.10;42.20
6986;DHT22;3533;51.246;6.850;2022-12-24T03:51:22;19.10;42.20
6986;DHT22;3533;51.246;6.850;2022-12-24T03:53:48;19.10;42.20
6986;DHT22;3533;51.246;6.850;2022-12-24T03:56:14;19.10;42.20
6986;DHT22;3533;51.246;6.850;2022-12-24T03:58:39;19.10;42.20
6986;DHT22;3533;51.246;6.850;2022-12-24T04:01:05;19.10;42.20
6986;DHT22;3533;51.246;6.850;2022-12-24T04:03:30;19.10;42.20
6986;DHT22;3533;51.246;6.850;2022-12-24T04:06:16;19.10;42.20
6986;DHT22;3533;51.246;6.850;2022-12-24T04:08:42;19.10;42.20
6986;DHT22;3533;51.246;6.850;2022-12-24T04:11:09;19.10;42.20
6986;DHT22;3533;51.246;6.850;2022-12-24T04:13:35;19.10;42.20
6986;DHT22;3533;51.246;6.850;2022-12-24T04:16:09;19.10;42.20
6986;DHT22;3533;51.246;6.850;2022-12-24T04:18:35;19.10;42.10
6986;DHT22;3533;51.246;6.850;2022-12-24T04:21:02;19.10;42.30
6986;DHT22;3533;51.246;6.850;2022-12-24T04:23:30;19.10;42.20
6986;DHT22;3533;51.246;6.850;2022-12-24T04:25:58;19.10;42.20
6986;DHT22;3533;51.246;6.850;2022-12-24T04:28:24;19.10;42.20
6986;DHT22;3533;51.246;6.850;2022-12-24T04:30:49;19.10;42.20
6986;DHT22;3533;51.246;6.850;2022-12-24T04:33:15;19.10;42.60
6986;DHT22;3533;51.246;6.850;2022-12-24T04:35:40;19.10;42.20
6986;DHT22;3533;51.246;6.850;2022-12-24T04:38:07;19.10;42.10
6986;DHT22;3533;51.246;6.850;2022-12-24T04:40:33;19.10;42.20
6986;DHT22;3533;51.246;6.850;2022-12-24T04:42:59;19.10;42.20
6986;DHT22;3533;51.246;6.850;2022-12-24T04:45:24;19.10;42.20
6986;DHT22;3533;51.246;6.850;2022-12-24T04:47:50;19.10;42.20
6986;DHT22;3533;51.246;6.850;2022-12-24T04:50:15;19.10;42.10
6986;DHT22;3533;51.246;6.850;2022-12-24T04:52:41;19.10;42.10
6986;DHT22;3533;51.246;6.850;2022-12-24T04:55:07;19.10;42.10
6986;DHT22;3533;51.246;6.850;2022-12-24T04:57:33;19.10;42.10
6986;DHT22;3533;51.246;6.850;2022-12-24T05:00:00;19.20;42.90
6986;DHT22;3533;51.246;6.850;2022-12-24T05:02:26;19.10;42.00
6986;DHT22;3533;51.246;6.850;2022-12-24T05:04:51;19.20;42.00
6986;DHT22;3533;51.246;6.850;2022-12-24T05:07:17;19.20;42.00
6986;DHT22;3533;51.246;6.850;2022-12-24T05:09:43;19.20;42.00
6986;DHT22;3533;51.246;6.850;2022-12-24T05:12:08;19.20;42.00
6986;DHT22;3533;51.246;6.850;2022-12-24T05:14:34;19.20;42.00
6986;DHT22;3533;51.246;6.850;2022-12-24T05:16:59;19.20;42.00
6986;DHT22;3533;51.246;6.850;2022-12-24T05:19:25;19.20;42.70
6986;DHT22;3533;51.246;6.850;2022-12-24T05:21:51;19.20;42.00
6986;DHT22;3533;51.246;6.850;2022-12-24T05:24:35;19.20;41.90
6986;DHT22;3533;51.246;6.850;2022-12-24T05:27:19;19.20;41.90
6986;DHT22;3533;51.246;6.850;2022-12-24T05:29:45;19.20;41.90
6986;DHT22;3533;51.246;6.850;2022-12-24T05:32:10;19.30;42.00
6986;DHT22;3533;51.246;6.850;2022-12-24T05:34:36;19.30;42.00
6986;DHT22;3533;51.246;6.850;2022-12-24T05:37:01;19.30;42.00
6986;DHT22;3533;51.246;6.850;2022-12-24T05:39:27;19.30;42.00
6986;DHT22;3533;51.246;6.850;2022-12-24T05:41:53;19.30;42.00
6986;DHT22;3533;51.246;6.850;2022-12-24T05:44:18;19.30;42.00
6986;DHT22;3533;51.246;6.850;2022-12-24T05:46:44;19.30;42.00
6986;DHT22;3533;51.246;6.850;2022-12-24T05:49:10;19.30;41.90
6986;DHT22;3533;51.246;6.850;2022-12-24T05:51:35;19.30;41.90
6986;DHT22;3533;51.246;6.850;2022-12-24T05:54:01;19.30;41.90
6986;DHT22;3533;51.246;6.850;2022-12-24T05:56:26;19.30;41.90
6986;DHT22;3533;51.246;6.850;2022-12-24T05:58:52;19.30;41.90
6986;DHT22;3533;51.246;6.850;2022-12-24T06:01:19;19.30;41.90
6986;DHT22;3533;51.246;6.850;2022-12-24T06:03:45;19.30;41.90
6986;DHT22;3533;51.246;6.850;2022-12-24T06:06:14;19.30;41.90
6986;DHT22;3533;51.246;6.850;2022-12-24T06:08:41;19.30;41.90
6986;DHT22;3533;51.246;6.850;2022-12-24T06:11:10;19.30;41.90
6986;DHT22;3533;51.246;6.850;2022-12-24T06:13:36;19.30;41.90
6986;DHT22;3533;51.246;6.850;2022-12-24T06:16:04;19.30;41.90
6986;DHT22;3533;51.246;6.850;2022-12-24T06:18:32;19.30;41.90
6986;DHT22;3533;51.246;6.850;2022-12-24T06:20:59;19.30;41.90
6986;DHT22;3533;51.246;6.850;2022-12-24T06:23:25;19.30;41.90
6986;DHT22;3533;51.246;6.850;2022-12-24T06:25:51;19.30;41.90
6986;DHT22;3533;51.246;6.850;2022-12-24T06:28:17;19.30;41.90
6986;DHT22;3533;51.246;6.850;2022-12-24T06:30:47;19.30;41.90
6986;DHT22;3533;51.246;6.850;2022-12-24T06:33:13;19.30;41.90
6986;DHT22;3533;51.246;6.850;2022-12-24T06:35:39;19.30;41.90
6986;DHT22;3533;51.246;6.850;2022-12-24T06:38:04;19.30;41.90
6986;DHT22;3533;51.246;6.850;2022-12-24T06:40:30;19.30;41.90
6986;DHT22;3533;51.246;6.850;2022-12-24T06:42:56;19.30;42.00
6986;DHT22;3533;51.246;6.850;2022-12-24T06:45:21;19.30;41.90
6986;DHT22;3533;51.246;6.850;2022-12-24T06:47:46;19.30;41.90
6986;DHT22;3533;51.246;6.850;2022-12-24T06:50:12;19.30;41.90
6986;DHT22;3533;51.246;6.850;2022-12-24T06:52:38;19.30;41.90
6986;DHT22;3533;51.246;6.850;2022-12-24T06:55:04;19.30;42.70
6986;DHT22;3533;51.246;6.850;2022-12-24T06:57:29;19.30;41.90
6986;DHT22;3533;51.246;6.850;2022-12-24T06:59:58;19.30;41.90
6986;DHT22;3533;51.246;6.850;2022-12-24T07:02:24;19.30;41.90
6986;DHT22;3533;51.246;6.850;2022-12-24T07:04:49;19.30;41.90
6986;DHT22;3533;51.246;6.850;2022-12-24T07:07:15;19.30;41.90
6986;DHT22;3533;51.246;6.850;2022-12-24T07:09:41;19.30;41.90
6986;DHT22;3533;51.246;6.850;2022-12-24T07:12:06;19.30;41.90
6986;DHT22;3533;51.246;6.850;2022-12-24T07:14:33;19.30;41.90
6986;DHT22;3533;51.246;6.850;2022-12-24T07:16:58;19.30;41.90
6986;DHT22;3533;51.246;6.850;2022-12-24T07:19:24;19.30;41.90
6986;DHT22;3533;51.246;6.850;2022-12-24T07:21:50;19.30;41.90
6986;DHT22;3533;51.246;6.850;2022-12-24T07:24:15;19.30;41.80
6986;DHT22;3533;51.246;6.850;2022-12-24T07:26:41;19.30;41.90
6986;DHT22;3533;51.246;6.850;2022-12-24T07:29:07;19.30;41.90
6986;DHT22;3533;51.246;6.850;2022-12-24T07:31:32;19.30;41.80
6986;DHT22;3533;51.246;6.850;2022-12-24T07:33:58;19.30;41.90
6986;DHT22;3533;51.246;6.850;2022-12-24T07:36:24;19.30;41.90
6986;DHT22;3533;51.246;6.850;2022-12-24T07:38:49;19.30;41.90
6986;DHT22;3533;51.246;6.850;2022-12-24T07:41:16;19.30;41.90
6986;DHT22;3533;51.246;6.850;2022-12-24T07:43:42;19.30;41.90
6986;DHT22;3533;51.246;6.850;2022-12-24T07:46:08;19.30;41.80
6986;DHT22;3533;51.246;6.850;2022-12-24T07:48:33;19.30;41.90
6986;DHT22;3533;51.246;6.850;2022-12-24T07:50:59;19.30;41.90
6986;DHT22;3533;51.246;6.850;2022-12-24T07:53:26;19.30;41.90
6986;DHT22;3533;51.246;6.850;2022-12-24T07:55:52;19.30;41.90
6986;DHT22;3533;51.246;6.850;2022-12-24T07:58:18;19.30;41.90
6986;DHT22;3533;51.246;6.850;2022-12-24T08:00:44;19.30;41.90
6986;DHT22;3533;51.246;6.850;2022-12-24T08:03:18;19.30;41.90
6986;DHT22;3533;51.246;6.850;2022-12-24T08:05:44;19.30;41.80
6986;DHT22;3533;51.246;6.850;2022-12-24T08:08:10;19.40;41.80
6986;DHT22;3533;51.246;6.850;2022-12-24T08:10:40;19.40;41.80
6986;DHT22;3533;51.246;6.850;2022-12-24T08:13:06;19.40;41.70
6986;DHT22;3533;51.246;6.850;2022-12-24T08:15:32;19.40;41.70
6986;DHT22;3533;51.246;6.850;2022-12-24T08:17:57;19.40;41.60
6986;DHT22;3533;51.246;6.850;2022-12-24T08:20:23;19.40;41.70
6986;DHT22;3533;51.246;6.850;2022-12-24T08:22:49;19.40;41.60
6986;DHT22;3533;51.246;6.850;2022-12-24T08:25:14;19.40;41.60
6986;DHT22;3533;51.246;6.850;2022-12-24T08:27:40;19.40;41.60
6986;DHT22;3533;51.246;6.850;2022-12-24T08:30:06;19.40;41.60
6986;DHT22;3533;51.246;6.850;2022-12-24T08:32:32;19.40;41.70
6986;DHT22;3533;51.246;6.850;2022-12-24T08:34:58;19.40;41.60
6986;DHT22;3533;51.246;6.850;2022-12-24T08:37:23;19.40;41.60
6986;DHT22;3533;51.246;6.850;2022-12-24T08:39:49;19.40;41.70
6986;DHT22;3533;51.246;6.850;2022-12-24T08:42:14;19.40;41.70
6986;DHT22;3533;51.246;6.850;2022-12-24T08:44:40;19.40;41.70
6986;DHT22;3533;51.246;6.850;2022-12-24T08:47:05;19.40;41.70
6986;DHT22;3533;51.246;6.850;2022-12-24T08:49:31;19.40;41.70
6986;DHT22;3533;51.246;6.850;2022-12-24T08:51:56;19.40;41.70
6986;DHT22;3533;51.246;6.850;2022-12-24T08:54:23;19.40;41.80
6986;DHT22;3533;51.246;6.850;2022-12-24T08:56:49;19.40;41.80
6986;DHT22;3533;51.246;6.850;2022-12-24T08:59:15;19.40;41.80
6986;DHT22;3533;51.246;6.850;2022-12-24T09:01:40;19.40;41.80
6986;DHT22;3533;51.246;6.850;2022-12-24T09:04:06;19.40;41.80
6986;DHT22;3533;51.246;6.850;2022-12-24T09:06:32;19.30;41.70
6986;DHT22;3533;51.246;6.850;2022-12-24T09:08:58;19.30;41.80
6986;DHT22;3533;51.246;6.850;2022-12-24T09:11:23;19.30;41.80
6986;DHT22;3533;51.246;6.850;2022-12-24T09:13:49;19.30;41.80
6986;DHT22;3533;51.246;6.850;2022-12-24T09:16:15;19.30;41.80
6986;DHT22;3533;51.246;6.850;2022-12-24T09:18:41;19.30;41.80
6986;DHT22;3533;51.246;6.850;2022-12-24T09:21:09;19.30;41.80
6986;DHT22;3533;51.246;6.850;2022-12-24T09:23:36;19.30;41.80
6986;DHT22;3533;51.246;6.850;2022-12-24T09:26:16;19.30;41.90
6986;DHT22;3533;51.246;6.850;2022-12-24T09:28:42;19.30;41.90
6986;DHT22;3533;51.246;6.850;2022-12-24T09:31:09;19.30;41.90
6986;DHT22;3533;51.246;6.850;2022-12-24T09:33:36;19.30;41.90
6986;DHT22;3533;51.246;6.850;2022-12-24T09:36:03;19.30;41.90
6986;DHT22;3533;51.246;6.850;2022-12-24T09:38:29;19.30;41.90
6986;DHT22;3533;51.246;6.850;2022-12-24T09:40:55;19.30;41.90
6986;DHT22;3533;51.246;6.850;2022-12-24T09:43:23;19.30;41.90
6986;DHT22;3533;51.246;6.850;2022-12-24T09:46:01;19.30;41.90
6986;DHT22;3533;51.246;6.850;2022-12-24T09:48:33;19.30;41.90
6986;DHT22;3533;51.246;6.850;2022-12-24T09:53:41;19.30;41.90
6986;DHT22;3533;51.246;6.850;2022-12-24T09:56:15;19.30;41.80
6986;DHT22;3533;51.246;6.850;2022-12-24T09:58:50;19.30;41.90
6986;DHT22;3533;51.246;6.850;2022-12-24T10:01:18;19.30;41.90
6986;DHT22;3533;51.246;6.850;2022-12-24T10:03:45;19.30;41.90
6986;DHT22;3533;51.246;6.850;2022-12-24T10:06:13;19.30;41.90
6986;DHT22;3533;51.246;6.850;2022-12-24T10:09:01;19.30;41.90
6986;DHT22;3533;51.246;6.850;2022-12-24T10:11:41;19.30;41.80
6986;DHT22;3533;51.246;6.850;2022-12-24T10:16:57;19.40;41.90
6986;DHT22;3533;51.246;6.850;2022-12-24T10:19:41;19.30;41.80
6986;DHT22;3533;51.246;6.850;2022-12-24T10:22:34;19.40;41.80
6986;DHT22;3533;51.246;6.850;2022-12-24T10:25:27;19.40;41.70
6986;DHT22;3533;51.246;6.850;2022-12-24T10:27:57;19.40;41.70
6986;DHT22;3533;51.246;6.850;2022-12-24T10:30:24;19.40;41.70
6986;DHT22;3533;51.246;6.850;2022-12-24T10:32:51;19.40;41.70
6986;DHT22;3533;51.246;6.850;2022-12-24T10:35:26;19.40;41.70
6986;DHT22;3533;51.246;6.850;2022-12-24T10:37:53;19.40;41.70
6986;DHT22;3533;51.246;6.850;2022-12-24T10:40:31;19.40;41.70
6986;DHT22;3533;51.246;6.850;2022-12-24T10:42:59;19.40;41.60
6986;DHT22;3533;51.246;6.850;2022-12-24T10:45:35;19.40;41.70
6986;DHT22;3533;51.246;6.850;2022-12-24T10:48:06;19.40;41.60
6986;DHT22;3533;51.246;6.850;2022-12-24T10:50:40;19.40;41.70
6986;DHT22;3533;51.246;6.850;2022-12-24T10:53:27;19.40;41.70
6986;DHT22;3533;51.246;6.850;2022-12-24T10:56:08;19.40;41.70
6986;DHT22;3533;51.246;6.850;2022-12-24T10:58:34;19.40;41.70
6986;DHT22;3533;51.246;6.850;2022-12-24T11:01:00;19.40;41.70
6986;DHT22;3533;51.246;6.850;2022-12-24T11:03:32;19.40;41.70
6986;DHT22;3533;51.246;6.850;2022-12-24T11:06:14;19.40;41.70
6986;DHT22;3533;51.246;6.850;2022-12-24T11:08:42;19.40;41.60
6986;DHT22;3533;51.246;6.850;2022-12-24T11:13:51;19.40;41.60
6986;DHT22;3533;51.246;6.850;2022-12-24T11:16:27;19.40;41.60
6986;DHT22;3533;51.246;6.850;2022-12-24T11:18:56;19.40;41.70
6986;DHT22;3533;51.246;6.850;2022-12-24T11:21:33;19.40;41.60
6986;DHT22;3533;51.246;6.850;2022-12-24T11:26:32;19.40;41.60
6986;DHT22;3533;51.246;6.850;2022-12-24T11:31:47;19.40;41.60
6986;DHT22;3533;51.246;6.850;2022-12-24T11:36:50;19.40;41.60
6986;DHT22;3533;51.246;6.850;2022-12-24T11:39:22;19.40;41.60
6986;DHT22;3533;51.246;6.850;2022-12-24T11:41:50;19.40;41.60
6986;DHT22;3533;51.246;6.850;2022-12-24T11:44:25;19.40;41.70
6986;DHT22;3533;51.246;6.850;2022-12-24T11:46:52;19.40;41.70
6986;DHT22;3533;51.246;6.850;2022-12-24T11:49:30;19.40;41.70
6986;DHT22;3533;51.246;6.850;2022-12-24T11:57:13;19.40;41.70
6986;DHT22;3533;51.246;6.850;2022-12-24T11:59:47;19.40;41.70
6986;DHT22;3533;51.246;6.850;2022-12-24T12:02:32;19.40;41.70
6986;DHT22;3533;51.246;6.850;2022-12-24T12:05:07;19.40;41.80
6986;DHT22;3533;51.246;6.850;2022-12-24T12:07:34;19.40;41.80
6986;DHT22;3533;51.246;6.850;2022-12-24T12:12:44;19.40;41.80
6986;DHT22;3533;51.246;6.850;2022-12-24T12:15:21;19.40;41.80
6986;DHT22;3533;51.246;6.850;2022-12-24T12:20:34;19.40;41.90
6986;DHT22;3533;51.246;6.850;2022-12-24T12:23:19;19.40;41.90
6986;DHT22;3533;51.246;6.850;2022-12-24T12:31:41;19.40;41.90
6986;DHT22;3533;51.246;6.850;2022-12-24T12:36:54;19.40;42.00
6986;DHT22;3533;51.246;6.850;2022-12-24T12:39:21;19.40;42.00
6986;DHT22;3533;51.246;6.850;2022-12-24T12:42:08;19.40;42.00
6986;DHT22;3533;51.246;6.850;2022-12-24T12:50:39;19.40;42.00
6986;DHT22;3533;51.246;6.850;2022-12-24T12:56:25;19.40;42.10
6986;DHT22;3533;51.246;6.850;2022-12-24T13:01:49;19.40;42.10
6986;DHT22;3533;51.246;6.850;2022-12-24T13:10:04;19.30;42.00
6986;DHT22;3533;51.246;6.850;2022-12-24T13:18:00;19.30;42.00
6986;DHT22;3533;51.246;6.850;2022-12-24T13:20:30;19.40;42.20
6986;DHT22;3533;51.246;6.850;2022-12-24T13:22:59;19.30;42.10
6986;DHT22;3533;51.246;6.850;2022-12-24T13:25:34;19.30;42.10
6986;DHT22;3533;51.246;6.850;2022-12-24T13:30:46;19.40;42.20
6986;DHT22;3533;51.246;6.850;2022-12-24T13:33:44;19.40;42.20
6986;DHT22;3533;51.246;6.850;2022-12-24T13:36:01;19.40;42.20
6986;DHT22;3533;51.246;6.850;2022-12-24T13:40:53;19.40;42.20
6986;DHT22;3533;51.246;6.850;2022-12-24T13:43:19;19.40;42.10
6986;DHT22;3533;51.246;6.850;2022-12-24T13:45:49;19.40;42.10
6986;DHT22;3533;51.246;6.850;2022-12-24T13:50:47;19.40;42.10
6986;DHT22;3533;51.246;6.850;2022-12-24T13:53:37;19.40;42.10
6986;DHT22;3533;51.246;6.850;2022-12-24T13:58:39;19.40;42.10
6986;DHT22;3533;51.246;6.850;2022-12-24T14:01:11;19.40;42.10
6986;DHT22;3533;51.246;6.850;2022-12-24T14:06:23;19.40;42.10
6986;DHT22;3533;51.246;6.850;2022-12-24T14:08:52;19.40;42.10
6986;DHT22;3533;51.246;6.850;2022-12-24T14:11:21;19.40;42.10
6986;DHT22;3533;51.246;6.850;2022-12-24T14:16:23;19.40;42.20
6986;DHT22;3533;51.246;6.850;2022-12-24T14:19:11;19.40;42.20
6986;DHT22;3533;51.246;6.850;2022-12-24T14:24:16;19.40;42.20
6986;DHT22;3533;51.246;6.850;2022-12-24T14:26:48;19.40;42.20
6986;DHT22;3533;51.246;6.850;2022-12-24T14:29:33;19.40;42.20
6986;DHT22;3533;51.246;6.850;2022-12-24T14:32:07;19.40;42.20
6986;DHT22;3533;51.246;6.850;2022-12-24T14:34:36;19.30;42.10
6986;DHT22;3533;51.246;6.850;2022-12-24T14:37:02;19.40;43.00
6986;DHT22;3533;51.246;6.850;2022-12-24T14:39:32;19.40;42.20
6986;DHT22;3533;51.246;6.850;2022-12-24T14:45:07;19.30;42.20
6986;DHT22;3533;51.246;6.850;2022-12-24T14:53:06;19.30;42.20
6986;DHT22;3533;51.246;6.850;2022-12-24T14:55:42;19.30;42.10
6986;DHT22;3533;51.246;6.850;2022-12-24T14:58:27;19.30;42.20
6986;DHT22;3533;51.246;6.850;2022-12-24T15:01:01;19.30;42.20
6986;DHT22;3533;51.246;6.850;2022-12-24T15:03:30;19.30;42.20
6986;DHT22;3533;51.246;6.850;2022-12-24T15:05:59;19.30;42.20
6986;DHT22;3533;51.246;6.850;2022-12-24T15:08:31;19.30;42.20
6986;DHT22;3533;51.246;6.850;2022-12-24T15:11:03;19.30;42.10
6986;DHT22;3533;51.246;6.850;2022-12-24T15:13:35;19.30;42.10
6986;DHT22;3533;51.246;6.850;2022-12-24T15:16:03;19.30;42.10
6986;DHT22;3533;51.246;6.850;2022-12-24T15:18:32;19.30;42.20
6986;DHT22;3533;51.246;6.850;2022-12-24T15:21:04;19.30;42.10
6986;DHT22;3533;51.246;6.850;2022-12-24T15:23:34;19.30;42.20
6986;DHT22;3533;51.246;6.850;2022-12-24T15:28:38;19.30;42.20
6986;DHT22;3533;51.246;6.850;2022-12-24T15:31:10;19.30;42.10
6986;DHT22;3533;51.246;6.850;2022-12-24T15:33:36;19.30;42.20
6986;DHT22;3533;51.246;6.850;2022-12-24T15:36:02;19.30;42.10
6986;DHT22;3533;51.246;6.850;2022-12-24T15:38:41;19.30;42.10
6986;DHT22;3533;51.246;6.850;2022-12-24T15:41:17;19.30;42.10
6986;DHT22;3533;51.246;6.850;2022-12-24T15:43:45;19.30;42.10
6986;DHT22;3533;51.246;6.850;2022-12-24T15:46:23;19.30;42.10
6986;DHT22;3533;51.246;6.850;2022-12-24T15:48:50;19.30;42.10
6986;DHT22;3533;51.246;6.850;2022-12-24T15:51:25;19.30;42.10
6986;DHT22;3533;51.246;6.850;2022-12-24T15:53:57;19.40;42.20
6986;DHT22;3533;51.246;6.850;2022-12-24T16:01:46;19.40;42.10
6986;DHT22;3533;51.246;6.850;2022-12-24T16:04:14;19.40;42.10
6986;DHT22;3533;51.246;6.850;2022-12-24T16:07:00;19.40;42.10
6986;DHT22;3533;51.246;6.850;2022-12-24T16:11:55;19.40;42.00
6986;DHT22;3533;51.246;6.850;2022-12-24T16:14:22;19.40;42.10
6986;DHT22;3533;51.246;6.850;2022-12-24T16:16:49;19.40;42.10
6986;DHT22;3533;51.246;6.850;2022-12-24T16:19:26;19.40;42.00
6986;DHT22;3533;51.246;6.850;2022-12-24T16:21:58;19.40;42.00
6986;DHT22;3533;51.246;6.850;2022-12-24T16:24:27;19.40;42.00
6986;DHT22;3533;51.246;6.850;2022-12-24T16:26:54;19.40;42.00
6986;DHT22;3533;51.246;6.850;2022-12-24T16:29:20;19.40;42.10
6986;DHT22;3533;51.246;6.850;2022-12-24T16:31:51;19.40;42.10
6986;DHT22;3533;51.246;6.850;2022-12-24T16:34:18;19.40;42.10
6986;DHT22;3533;51.246;6.850;2022-12-24T16:36:45;19.40;42.10
6986;DHT22;3533;51.246;6.850;2022-12-24T16:39:19;19.40;42.10
6986;DHT22;3533;51.246;6.850;2022-12-24T16:41:48;19.40;42.00
6986;DHT22;3533;51.246;6.850;2022-12-24T16:44:32;19.40;42.10
6986;DHT22;3533;51.246;6.850;2022-12-24T16:46:58;19.40;42.10
6986;DHT22;3533;51.246;6.850;2022-12-24T16:49:24;19.40;42.10
6986;DHT22;3533;51.246;6.850;2022-12-24T16:51:50;19.40;42.10
6986;DHT22;3533;51.246;6.850;2022-12-24T16:54:16;19.40;42.10
6986;DHT22;3533;51.246;6.850;2022-12-24T16:56:42;19.40;42.90
6986;DHT22;3533;51.246;6.850;2022-12-24T16:59:16;19.40;42.10
6986;DHT22;3533;51.246;6.850;2022-12-24T17:01:43;19.40;42.20
6986;DHT22;3533;51.246;6.850;2022-12-24T17:04:09;19.40;42.20
6986;DHT22;3533;51.246;6.850;2022-12-24T17:06:34;19.40;42.20
6986;DHT22;3533;51.246;6.850;2022-12-24T17:09:00;19.40;42.20
6986;DHT22;3533;51.246;6.850;2022-12-24T17:11:25;19.40;42.20
6986;DHT22;3533;51.246;6.850;2022-12-24T17:13:51;19.40;42.20
6986;DHT22;3533;51.246;6.850;2022-12-24T17:16:17;19.40;42.30
6986;DHT22;3533;51.246;6.850;2022-12-24T17:18:42;19.40;42.20
6986;DHT22;3533;51.246;6.850;2022-12-24T17:21:09;19.40;42.20
6986;DHT22;3533;51.246;6.850;2022-12-24T17:23:35;19.40;42.20
6986;DHT22;3533;51.246;6.850;2022-12-24T17:26:01;19.40;42.30
6986;DHT22;3533;51.246;6.850;2022-12-24T17:28:26;19.40;42.30
6986;DHT22;3533;51.246;6.850;2022-12-24T17:30:52;19.40;42.20
6986;DHT22;3533;51.246;6.850;2022-12-24T17:33:17;19.40;42.20
6986;DHT22;3533;51.246;6.850;2022-12-24T17:35:43;19.40;42.30
6986;DHT22;3533;51.246;6.850;2022-12-24T17:38:10;19.30;42.20
6986;DHT22;3533;51.246;6.850;2022-12-24T17:40:36;19.40;42.30
6986;DHT22;3533;51.246;6.850;2022-12-24T17:43:01;19.40;42.30
6986;DHT22;3533;51.246;6.850;2022-12-24T17:45:27;19.40;42.30
6986;DHT22;3533;51.246;6.850;2022-12-24T17:47:52;19.40;42.30
6986;DHT22;3533;51.246;6.850;2022-12-24T17:50:18;19.40;42.30
6986;DHT22;3533;51.246;6.850;2022-12-24T17:52:43;19.40;42.20
6986;DHT22;3533;51.246;6.850;2022-12-24T17:55:09;19.40;42.20
6986;DHT22;3533;51.246;6.850;2022-12-24T17:57:35;19.40;42.20
6986;DHT22;3533;51.246;6.850;2022-12-24T18:00:00;19.40;42.20
6986;DHT22;3533;51.246;6.850;2022-12-24T18:02:26;19.40;42.20
6986;DHT22;3533;51.246;6.850;2022-12-24T18:04:51;19.40;42.20